Time;durP1;ratioP1;P1;durP2;ratioP2;P2;SDS_P1;SDS_P2;PMS_P1;PMS_P2;Temp;Humidity;BMP_temperature;BMP_pressure;BME280_temperature;BME280_humidity;BME280_pressure;Samples;Min_cycle;Max_cycle;Signal;HPM_P1;HPM_P2
2022/11/27 00:00:12;;;;;;;36.65;14.35;;;;;;;;;;5061058;28;20045;-80
2022/11/27 00:02:39;;;;;;;35.17;15.20;;;;;;;;;;5061399;28;20071;-80
2022/11/27 00:05:06;;;;;;;37.92;16.60;;;;;;;;;;5060929;28;20418;-83
2022/11/27 00:07:32;;;;;;;37.13;15.55;;;;;;;;;;5060527;28;20045;-82
2022/11/27 00:09:59;;;;;;;45.55;14.93;;;;;;;;;;5058696;28;20045;-82
2022/11/27 00:12:25;;;;;;;37.95;15.10;;;;;;;;;;5056839;28;20067;-80
2022/11/27 00:14:52;;;;;;;41.47;15.88;;;;;;;;;;5057764;28;20056;-81
2022/11/27 00:17:21;;;;;;;33.08;14.35;;;;;;;;;;5054509;28;20052;-81
2022/11/27 00:19:47;;;;;;;31.23;13.35;;;;;;;;;;5053375;28;20060;-81
2022/11/27 00:22:13;;;;;;;38.42;14.73;;;;;;;;;;5054189;28;20502;-78
2022/11/27 00:24:41;;;;;;;34.63;14.65;;;;;;;;;;5054199;28;20415;-79
2022/11/27 00:27:08;;;;;;;35.65;14.27;;;;;;;;;;5051150;28;20516;-80
2022/11/27 00:29:34;;;;;;;30.73;14.27;;;;;;;;;;5055572;28;20460;-80
2022/11/27 00:32:01;;;;;;;29.85;14.23;;;;;;;;;;5053934;28;20052;-78
2022/11/27 00:34:27;;;;;;;33.00;13.77;;;;;;;;;;5054639;28;20496;-80
2022/11/27 00:36:53;;;;;;;33.80;14.73;;;;;;;;;;5054072;28;20060;-80
2022/11/27 00:39:20;;;;;;;37.15;15.48;;;;;;;;;;5055110;28;20063;-81
2022/11/27 00:41:46;;;;;;;33.47;14.32;;;;;;;;;;5055064;28;20053;-78
2022/11/27 00:44:13;;;;;;;37.15;15.32;;;;;;;;;;5055134;28;20053;-81
2022/11/27 00:46:40;;;;;;;35.38;16.13;;;;;;;;;;5055436;28;20092;-80
2022/11/27 00:49:07;;;;;;;35.05;15.52;;;;;;;;;;5054376;28;20099;-81
2022/11/27 00:51:34;;;;;;;38.17;14.57;;;;;;;;;;5054778;28;20109;-80
2022/11/27 00:54:00;;;;;;;39.90;15.07;;;;;;;;;;5052327;28;20063;-80
2022/11/27 00:56:28;;;;;;;32.45;14.55;;;;;;;;;;5054468;28;20063;-81
2022/11/27 00:58:55;;;;;;;53.58;16.40;;;;;;;;;;5056353;28;20589;-79
2022/11/27 01:01:23;;;;;;;45.45;15.57;;;;;;;;;;5054310;28;20072;-80
2022/11/27 01:03:50;;;;;;;39.70;16.77;;;;;;;;;;5054544;28;20064;-81
2022/11/27 01:06:17;;;;;;;41.42;14.85;;;;;;;;;;5051413;28;20051;-81
2022/11/27 01:08:43;;;;;;;40.40;16.48;;;;;;;;;;5055068;28;20132;-80
2022/11/27 01:11:17;;;;;;;42.83;15.90;;;;;;;;;;5053735;28;20124;-80
2022/11/27 01:13:44;;;;;;;36.97;15.65;;;;;;;;;;5057856;28;20655;-79
2022/11/27 01:16:12;;;;;;;43.13;15.73;;;;;;;;;;5055697;28;20053;-79
2022/11/27 01:18:39;;;;;;;47.67;15.93;;;;;;;;;;5056918;28;20134;-80
2022/11/27 01:21:07;;;;;;;45.90;15.85;;;;;;;;;;5057076;28;20048;-80
2022/11/27 01:23:33;;;;;;;46.20;17.80;;;;;;;;;;5058423;28;20059;-79
2022/11/27 01:26:06;;;;;;;40.60;15.00;;;;;;;;;;5064574;28;20052;-80
2022/11/27 01:28:33;;;;;;;35.58;14.32;;;;;;;;;;5063680;28;20048;-82
2022/11/27 01:31:10;;;;;;;39.08;14.85;;;;;;;;;;5066401;28;20128;-82
2022/11/27 01:33:36;;;;;;;43.88;15.63;;;;;;;;;;5063991;28;20041;-81
2022/11/27 01:36:04;;;;;;;44.13;16.45;;;;;;;;;;5062455;28;20066;-82
2022/11/27 01:38:31;;;;;;;41.35;16.55;;;;;;;;;;5049922;28;20072;-81
2022/11/27 01:41:01;;;;;;;41.97;16.38;;;;;;;;;;5044331;28;20046;-80
2022/11/27 01:43:37;;;;;;;46.92;17.20;;;;;;;;;;5043176;28;20045;-81
2022/11/27 01:46:08;;;;;;;61.10;17.55;;;;;;;;;;5043274;28;20073;-81
2022/11/27 01:48:34;;;;;;;51.88;17.13;;;;;;;;;;5042218;28;20046;-81
2022/11/27 01:51:01;;;;;;;47.53;16.65;;;;;;;;;;5043160;28;20059;-80
2022/11/27 01:53:27;;;;;;;50.67;17.27;;;;;;;;;;5042283;28;20053;-81
2022/11/27 01:55:56;;;;;;;51.40;18.35;;;;;;;;;;5043845;28;20080;-81
2022/11/27 01:58:27;;;;;;;52.67;20.00;;;;;;;;;;5042968;28;20053;-79
2022/11/27 02:00:53;;;;;;;55.22;18.20;;;;;;;;;;5042838;28;20329;-81
2022/11/27 02:03:20;;;;;;;53.85;18.65;;;;;;;;;;5038920;28;20674;-81
2022/11/27 02:05:47;;;;;;;51.15;17.75;;;;;;;;;;5041764;28;20062;-81
2022/11/27 02:08:14;;;;;;;43.72;16.85;;;;;;;;;;5041642;28;20045;-80
2022/11/27 02:10:41;;;;;;;39.58;16.60;;;;;;;;;;5040525;28;20109;-80
2022/11/27 02:13:11;;;;;;;41.90;16.20;;;;;;;;;;5042038;28;20137;-81
2022/11/27 02:15:53;;;;;;;47.55;16.02;;;;;;;;;;5042460;28;20115;-81
2022/11/27 02:18:20;;;;;;;43.28;15.38;;;;;;;;;;5042745;28;20066;-82
2022/11/27 02:20:52;;;;;;;36.78;15.93;;;;;;;;;;5044551;28;20057;-81
2022/11/27 02:23:20;;;;;;;35.92;15.55;;;;;;;;;;5038843;28;20049;-81
2022/11/27 02:25:49;;;;;;;53.15;16.98;;;;;;;;;;5038493;28;20541;-79
2022/11/27 02:28:28;;;;;;;40.40;16.77;;;;;;;;;;5044537;28;20060;-81
2022/11/27 02:30:58;;;;;;;37.13;15.48;;;;;;;;;;5059051;28;20041;-82
2022/11/27 02:33:25;;;;;;;42.58;17.02;;;;;;;;;;5063516;28;20049;-81
2022/11/27 02:36:00;;;;;;;39.55;16.92;;;;;;;;;;5069151;28;20037;-80
2022/11/27 02:38:31;;;;;;;38.63;17.33;;;;;;;;;;5075846;28;20036;-81
2022/11/27 02:41:04;;;;;;;42.00;17.58;;;;;;;;;;5076201;28;20033;-82
2022/11/27 02:43:35;;;;;;;36.83;15.80;;;;;;;;;;5075983;28;20101;-81
2022/11/27 02:46:03;;;;;;;37.60;15.80;;;;;;;;;;5068988;28;20154;-81
2022/11/27 02:48:33;;;;;;;40.50;16.40;;;;;;;;;;5061940;28;20104;-81
2022/11/27 02:51:00;;;;;;;37.10;16.08;;;;;;;;;;5060370;28;20919;-80
2022/11/27 02:53:30;;;;;;;36.28;16.40;;;;;;;;;;5060789;28;20053;-81
2022/11/27 02:55:58;;;;;;;39.30;17.63;;;;;;;;;;5059658;28;20062;-80
2022/11/27 02:58:26;;;;;;;42.00;16.70;;;;;;;;;;5060296;28;20059;-81
2022/11/27 03:00:53;;;;;;;32.30;15.70;;;;;;;;;;5062417;28;20052;-81
2022/11/27 03:03:22;;;;;;;37.47;16.65;;;;;;;;;;5063494;28;20112;-80
2022/11/27 03:05:50;;;;;;;35.50;16.88;;;;;;;;;;5063179;28;20132;-81
2022/11/27 03:08:17;;;;;;;34.88;17.08;;;;;;;;;;5063371;28;20108;-82
2022/11/27 03:10:49;;;;;;;39.05;16.65;;;;;;;;;;5063923;28;20051;-82
2022/11/27 03:13:16;;;;;;;41.33;17.38;;;;;;;;;;5063790;28;20045;-81
2022/11/27 03:15:51;;;;;;;38.33;17.10;;;;;;;;;;5069526;28;20043;-81
2022/11/27 03:18:22;;;;;;;42.88;17.77;;;;;;;;;;5073736;28;20103;-81
2022/11/27 03:20:55;;;;;;;38.42;17.13;;;;;;;;;;5074397;28;20041;-81
2022/11/27 03:23:21;;;;;;;35.05;16.35;;;;;;;;;;5074839;28;20037;-82
2022/11/27 03:25:47;;;;;;;39.40;17.45;;;;;;;;;;5073431;28;20296;-79
2022/11/27 03:28:14;;;;;;;40.05;17.27;;;;;;;;;;5061738;28;20049;-82
2022/11/27 03:30:41;;;;;;;36.65;16.50;;;;;;;;;;5064623;28;20060;-81
2022/11/27 03:33:07;;;;;;;35.15;16.15;;;;;;;;;;5067712;28;20055;-82
2022/11/27 03:35:33;;;;;;;45.72;17.77;;;;;;;;;;5067406;28;20037;-81
2022/11/27 03:38:00;;;;;;;37.20;16.67;;;;;;;;;;5067928;28;20068;-80
2022/11/27 03:40:29;;;;;;;35.15;16.05;;;;;;;;;;5069214;28;20125;-80
2022/11/27 03:43:34;;;;;;;39.67;16.63;;;;;;;;;;5066735;28;20072;-79
2022/11/27 03:46:13;;;;;;;40.30;16.85;;;;;;;;;;5000662;28;20054;-81
2022/11/27 03:48:52;;;;;;;34.78;15.48;;;;;;;;;;5004252;28;20054;-80
2022/11/27 03:51:29;;;;;;;37.85;15.85;;;;;;;;;;5037986;28;20052;-81
2022/11/27 03:54:03;;;;;;;34.97;15.05;;;;;;;;;;5059320;28;20041;-80
2022/11/27 03:56:29;;;;;;;35.55;16.27;;;;;;;;;;5059594;28;20041;-80
2022/11/27 03:59:02;;;;;;;37.72;17.23;;;;;;;;;;5059921;28;20045;-79
2022/11/27 04:01:29;;;;;;;33.85;15.07;;;;;;;;;;5060187;28;20056;-80
2022/11/27 04:03:56;;;;;;;39.65;15.75;;;;;;;;;;5059462;28;20068;-79
2022/11/27 04:06:22;;;;;;;32.78;15.32;;;;;;;;;;5060263;28;20044;-80
2022/11/27 04:08:49;;;;;;;34.28;15.13;;;;;;;;;;5061607;28;20045;-81
2022/11/27 04:11:15;;;;;;;35.78;14.60;;;;;;;;;;5072027;28;20063;-79
2022/11/27 04:13:42;;;;;;;31.50;14.88;;;;;;;;;;5062579;28;20167;-81
2022/11/27 04:16:08;;;;;;;34.58;15.07;;;;;;;;;;5052473;28;20055;-80
2022/11/27 04:18:35;;;;;;;31.23;13.18;;;;;;;;;;5053596;28;20041;-81
2022/11/27 04:21:02;;;;;;;34.53;14.48;;;;;;;;;;5052916;28;20051;-81
2022/11/27 04:23:28;;;;;;;32.47;15.15;;;;;;;;;;5054451;28;20119;-80
2022/11/27 04:25:54;;;;;;;39.20;14.52;;;;;;;;;;5056509;28;20420;-80
2022/11/27 04:28:21;;;;;;;29.90;12.13;;;;;;;;;;5062384;28;20047;-81
2022/11/27 04:30:51;;;;;;;30.02;13.27;;;;;;;;;;5062849;28;20053;-81
2022/11/27 04:33:18;;;;;;;27.67;13.07;;;;;;;;;;5055564;28;20053;-79
2022/11/27 04:35:44;;;;;;;33.85;13.63;;;;;;;;;;5056736;28;20627;-80
2022/11/27 04:38:12;;;;;;;34.25;14.35;;;;;;;;;;5054630;28;20071;-80
2022/11/27 04:40:39;;;;;;;28.65;13.45;;;;;;;;;;5053997;28;20055;-80
2022/11/27 04:43:05;;;;;;;32.83;13.23;;;;;;;;;;5057438;28;20044;-80
2022/11/27 04:45:31;;;;;;;33.53;12.93;;;;;;;;;;5062520;28;20053;-80
2022/11/27 04:47:59;;;;;;;43.03;17.08;;;;;;;;;;5069073;28;20076;-81
2022/11/27 04:50:25;;;;;;;40.42;15.27;;;;;;;;;;5068767;28;20048;-82
2022/11/27 04:52:53;;;;;;;45.00;16.70;;;;;;;;;;5068366;28;20124;-81
2022/11/27 04:55:19;;;;;;;33.20;14.25;;;;;;;;;;5070267;28;20052;-81
2022/11/27 04:57:45;;;;;;;32.05;13.95;;;;;;;;;;5073504;28;20087;-82
2022/11/27 05:00:13;;;;;;;29.80;12.85;;;;;;;;;;5074156;28;20041;-79
2022/11/27 05:02:39;;;;;;;28.55;11.63;;;;;;;;;;5073443;28;20085;-81
2022/11/27 05:05:06;;;;;;;34.65;12.38;;;;;;;;;;5074894;28;20052;-81
2022/11/27 05:07:32;;;;;;;28.58;12.77;;;;;;;;;;5073176;28;20060;-82
2022/11/27 05:09:59;;;;;;;28.95;12.65;;;;;;;;;;5075223;28;20049;-82
2022/11/27 05:12:26;;;;;;;29.15;10.98;;;;;;;;;;5075078;28;20040;-82
2022/11/27 05:14:52;;;;;;;25.25;11.43;;;;;;;;;;5073388;28;20045;-82
2022/11/27 05:17:18;;;;;;;34.50;11.65;;;;;;;;;;5074196;28;20061;-82
2022/11/27 05:19:45;;;;;;;23.67;10.10;;;;;;;;;;5062780;28;20064;-81
2022/11/27 05:22:11;;;;;;;28.95;10.27;;;;;;;;;;5056216;28;20045;-80
2022/11/27 05:24:38;;;;;;;22.90;9.77;;;;;;;;;;5057731;28;20057;-80
2022/11/27 05:27:05;;;;;;;24.05;9.95;;;;;;;;;;5056021;28;20443;-79
2022/11/27 05:29:31;;;;;;;26.48;9.82;;;;;;;;;;5057991;28;20059;-82
2022/11/27 05:31:57;;;;;;;24.92;9.48;;;;;;;;;;5057318;28;20067;-81
2022/11/27 05:34:24;;;;;;;22.17;9.52;;;;;;;;;;5055532;28;20056;-79
2022/11/27 05:36:50;;;;;;;21.25;9.23;;;;;;;;;;5062066;28;20128;-82
2022/11/27 05:39:17;;;;;;;20.55;9.40;;;;;;;;;;5064778;28;20060;-80
2022/11/27 05:41:43;;;;;;;22.35;9.48;;;;;;;;;;5060594;28;20129;-80
2022/11/27 05:44:11;;;;;;;21.20;9.77;;;;;;;;;;5056331;28;20059;-81
2022/11/27 05:46:37;;;;;;;20.90;9.20;;;;;;;;;;5057826;28;20053;-80
2022/11/27 05:49:05;;;;;;;23.13;9.18;;;;;;;;;;5057233;28;20083;-82
2022/11/27 05:51:31;;;;;;;25.67;9.18;;;;;;;;;;5058052;28;20195;-80
2022/11/27 05:53:58;;;;;;;21.05;9.25;;;;;;;;;;5054895;28;20426;-80
2022/11/27 05:56:26;;;;;;;18.98;9.18;;;;;;;;;;5054741;28;20045;-80
2022/11/27 05:58:52;;;;;;;24.27;9.45;;;;;;;;;;5056086;28;20049;-80
2022/11/27 06:01:19;;;;;;;20.92;9.48;;;;;;;;;;5055814;28;20045;-81
2022/11/27 06:03:45;;;;;;;21.20;9.57;;;;;;;;;;5053995;28;20433;-81
2022/11/27 06:06:16;;;;;;;23.90;8.98;;;;;;;;;;5052631;28;20049;-79
2022/11/27 06:08:43;;;;;;;28.08;9.40;;;;;;;;;;5057341;28;20494;-80
2022/11/27 06:11:12;;;;;;;21.17;8.73;;;;;;;;;;5055759;28;20132;-80
2022/11/27 06:13:39;;;;;;;16.15;8.18;;;;;;;;;;5054098;28;20056;-80
2022/11/27 06:16:26;;;;;;;18.77;8.13;;;;;;;;;;5055207;28;20056;-81
2022/11/27 06:18:53;;;;;;;17.42;8.15;;;;;;;;;;5056117;28;20059;-79
2022/11/27 06:21:20;;;;;;;19.08;8.55;;;;;;;;;;5060595;28;20053;-80
2022/11/27 06:23:47;;;;;;;18.35;8.52;;;;;;;;;;5065986;28;20057;-80
2022/11/27 06:26:21;;;;;;;23.13;9.07;;;;;;;;;;5062759;28;20041;-79
2022/11/27 06:28:47;;;;;;;20.88;8.63;;;;;;;;;;5054129;28;20049;-79
2022/11/27 06:31:15;;;;;;;19.10;8.30;;;;;;;;;;5056628;28;20090;-80
2022/11/27 06:33:44;;;;;;;17.50;7.72;;;;;;;;;;5054756;28;20118;-80
2022/11/27 06:36:11;;;;;;;20.67;7.85;;;;;;;;;;5055389;28;20056;-79
2022/11/27 06:38:37;;;;;;;18.77;7.88;;;;;;;;;;5048857;28;20155;-78
2022/11/27 06:41:05;;;;;;;18.25;7.93;;;;;;;;;;5048511;28;20059;-79
2022/11/27 06:43:32;;;;;;;19.30;8.45;;;;;;;;;;5048003;28;20056;-77
2022/11/27 06:45:59;;;;;;;22.65;8.68;;;;;;;;;;5048912;28;20144;-80
2022/11/27 06:48:25;;;;;;;18.48;8.63;;;;;;;;;;5052000;28;20099;-78
2022/11/27 06:50:52;;;;;;;20.60;9.20;;;;;;;;;;5051734;28;20079;-80
2022/11/27 06:53:18;;;;;;;21.05;8.88;;;;;;;;;;5050341;28;20059;-81
2022/11/27 06:55:45;;;;;;;18.55;8.45;;;;;;;;;;5050790;28;20052;-81
2022/11/27 06:58:14;;;;;;;25.52;9.18;;;;;;;;;;5048902;28;20084;-80
2022/11/27 07:00:40;;;;;;;17.58;7.97;;;;;;;;;;5048550;28;20051;-80
2022/11/27 07:03:08;;;;;;;18.95;7.90;;;;;;;;;;5044299;28;20057;-79
2022/11/27 07:05:35;;;;;;;22.23;9.07;;;;;;;;;;5050429;28;20045;-80
2022/11/27 07:08:01;;;;;;;21.08;8.70;;;;;;;;;;5050777;28;20452;-81
2022/11/27 07:10:28;;;;;;;17.77;8.32;;;;;;;;;;5051702;28;20504;-80
2022/11/27 07:12:55;;;;;;;18.60;8.57;;;;;;;;;;5050065;28;20049;-79
2022/11/27 07:15:21;;;;;;;26.90;8.68;;;;;;;;;;5047400;28;20049;-80
2022/11/27 07:17:47;;;;;;;19.52;8.48;;;;;;;;;;5051706;28;20143;-79
2022/11/27 07:20:14;;;;;;;24.33;8.93;;;;;;;;;;5051212;28;20060;-80
2022/11/27 07:22:40;;;;;;;20.42;8.95;;;;;;;;;;5051519;28;20074;-81
2022/11/27 07:25:07;;;;;;;24.23;9.13;;;;;;;;;;5052381;28;20053;-80
2022/11/27 07:27:33;;;;;;;22.67;9.35;;;;;;;;;;5048199;28;20523;-80
2022/11/27 07:30:03;;;;;;;18.08;9.40;;;;;;;;;;5049984;28;20045;-79
2022/11/27 07:32:30;;;;;;;22.40;9.88;;;;;;;;;;5045773;28;20498;-79
2022/11/27 07:34:56;;;;;;;20.10;8.63;;;;;;;;;;5046225;28;20048;-81
2022/11/27 07:37:22;;;;;;;21.90;9.38;;;;;;;;;;5054214;28;20621;-80
2022/11/27 07:39:49;;;;;;;20.73;9.50;;;;;;;;;;5043962;28;20502;-81
2022/11/27 07:42:30;;;;;;;22.23;9.60;;;;;;;;;;5044545;28;20129;-80
2022/11/27 07:45:06;;;;;;;17.60;7.13;;;;;;;;;;5048454;28;20485;-80
2022/11/27 07:47:32;;;;;;;23.60;9.80;;;;;;;;;;5053196;28;20509;-81
2022/11/27 07:49:59;;;;;;;25.85;10.18;;;;;;;;;;5038619;28;20132;-82
2022/11/27 07:52:26;;;;;;;25.63;10.50;;;;;;;;;;5035129;28;20107;-81
2022/11/27 07:54:54;;;;;;;22.65;10.02;;;;;;;;;;5044306;28;20565;-80
2022/11/27 07:57:20;;;;;;;22.38;9.75;;;;;;;;;;5047625;28;20322;-82
2022/11/27 07:59:46;;;;;;;19.63;9.27;;;;;;;;;;5059047;28;20053;-81
2022/11/27 08:02:13;;;;;;;20.52;9.45;;;;;;;;;;5038719;28;20430;-79
2022/11/27 08:04:40;;;;;;;24.55;11.52;;;;;;;;;;5046762;28;20143;-81
2022/11/27 08:07:07;;;;;;;24.65;11.20;;;;;;;;;;5054821;28;20049;-81
2022/11/27 08:09:33;;;;;;;27.98;11.35;;;;;;;;;;5046383;28;20460;-81
2022/11/27 08:12:00;;;;;;;28.50;12.68;;;;;;;;;;5055092;28;20520;-81
2022/11/27 08:14:26;;;;;;;24.77;11.38;;;;;;;;;;5045185;28;20041;-81
2022/11/27 08:16:52;;;;;;;27.20;10.73;;;;;;;;;;5057678;28;20053;-82
2022/11/27 08:19:19;;;;;;;17.00;8.88;;;;;;;;;;5057248;28;20129;-81
2022/11/27 08:21:45;;;;;;;15.80;8.20;;;;;;;;;;5053984;28;20113;-80
2022/11/27 08:24:12;;;;;;;12.40;6.22;;;;;;;;;;5055341;28;20055;-82
2022/11/27 08:26:38;;;;;;;11.60;5.65;;;;;;;;;;5038515;28;20057;-81
2022/11/27 08:29:05;;;;;;;8.90;5.07;;;;;;;;;;5049245;28;20473;-81
2022/11/27 08:31:32;;;;;;;9.85;4.70;;;;;;;;;;5061031;28;20117;-81
2022/11/27 08:33:59;;;;;;;9.57;4.80;;;;;;;;;;5059592;28;20107;-81
2022/11/27 08:36:28;;;;;;;8.32;4.35;;;;;;;;;;5060899;28;20200;-81
2022/11/27 08:38:54;;;;;;;8.65;4.20;;;;;;;;;;5053216;28;20097;-82
2022/11/27 08:41:21;;;;;;;8.00;4.65;;;;;;;;;;5071362;28;20033;-81
2022/11/27 08:43:47;;;;;;;7.85;4.32;;;;;;;;;;5060039;28;20037;-84
2022/11/27 08:46:13;;;;;;;9.75;4.38;;;;;;;;;;5066374;28;20052;-83
2022/11/27 08:48:40;;;;;;;9.63;4.40;;;;;;;;;;5066017;28;20344;-83
2022/11/27 08:51:08;;;;;;;8.63;4.53;;;;;;;;;;5053144;28;20049;-81
2022/11/27 08:53:36;;;;;;;9.32;4.47;;;;;;;;;;5046410;28;20509;-81
2022/11/27 08:56:12;;;;;;;11.52;4.20;;;;;;;;;;5044513;28;20045;-83
2022/11/27 08:58:39;;;;;;;7.95;3.72;;;;;;;;;;5047789;28;20072;-82
2022/11/27 09:01:07;;;;;;;11.05;4.25;;;;;;;;;;5050057;28;20267;-83
2022/11/27 09:03:34;;;;;;;10.70;4.57;;;;;;;;;;5048621;28;20076;-80
2022/11/27 09:06:00;;;;;;;10.63;4.80;;;;;;;;;;5049868;28;20279;-83
2022/11/27 09:08:27;;;;;;;15.25;7.25;;;;;;;;;;5053237;28;20382;-83
2022/11/27 09:10:53;;;;;;;18.63;7.90;;;;;;;;;;5039039;28;20064;-78
2022/11/27 09:13:19;;;;;;;26.17;9.57;;;;;;;;;;5044041;28;20055;-78
2022/11/27 09:15:46;;;;;;;26.70;9.48;;;;;;;;;;5052591;28;20049;-83
2022/11/27 09:18:12;;;;;;;19.65;7.45;;;;;;;;;;5049081;28;20060;-82
2022/11/27 09:20:39;;;;;;;14.18;7.43;;;;;;;;;;5047274;28;20057;-81
2022/11/27 09:23:05;;;;;;;11.20;4.45;;;;;;;;;;5035012;28;20288;-81
2022/11/27 09:25:39;;;;;;;9.98;4.53;;;;;;;;;;5049265;28;20800;-82
2022/11/27 09:28:05;;;;;;;10.02;4.38;;;;;;;;;;5045127;28;20052;-84
2022/11/27 09:30:32;;;;;;;8.57;4.15;;;;;;;;;;5049164;28;20053;-83
2022/11/27 09:33:00;;;;;;;9.65;4.88;;;;;;;;;;5046466;28;20045;-82
2022/11/27 09:35:27;;;;;;;9.55;3.92;;;;;;;;;;5050682;28;20059;-82
2022/11/27 09:37:53;;;;;;;6.82;3.65;;;;;;;;;;5052112;28;20095;-84
2022/11/27 09:40:20;;;;;;;8.90;3.80;;;;;;;;;;5057537;28;20048;-82
2022/11/27 09:42:49;;;;;;;6.43;3.47;;;;;;;;;;5055083;28;20063;-84
2022/11/27 09:45:16;;;;;;;7.78;3.67;;;;;;;;;;5051098;28;20049;-82
2022/11/27 09:47:46;;;;;;;9.38;3.30;;;;;;;;;;5060408;28;20029;-87
2022/11/27 09:50:21;;;;;;;5.50;3.20;;;;;;;;;;5074130;28;20039;-86
2022/11/27 09:52:56;;;;;;;8.50;3.70;;;;;;;;;;5072557;28;20037;-87
2022/11/27 09:55:42;;;;;;;6.68;3.45;;;;;;;;;;5074183;28;20033;-87
2022/11/27 09:58:17;;;;;;;9.70;3.77;;;;;;;;;;5073201;28;20049;-85
2022/11/27 10:00:44;;;;;;;8.15;3.83;;;;;;;;;;5073252;28;20112;-87
2022/11/27 10:03:15;;;;;;;9.05;4.25;;;;;;;;;;5073500;28;20059;-84
2022/11/27 10:05:58;;;;;;;9.07;4.03;;;;;;;;;;5070024;28;20055;-85
2022/11/27 10:08:32;;;;;;;6.90;3.60;;;;;;;;;;5073405;28;20101;-84
2022/11/27 10:10:58;;;;;;;8.82;4.18;;;;;;;;;;5072712;28;20029;-85
2022/11/27 10:13:28;;;;;;;6.50;3.95;;;;;;;;;;5071628;28;20052;-86
2022/11/27 10:15:54;;;;;;;8.82;4.25;;;;;;;;;;5068348;28;20105;-83
2022/11/27 10:18:59;;;;;;;7.63;4.18;;;;;;;;;;5048261;28;20359;-82
2022/11/27 10:21:45;;;;;;;9.25;3.88;;;;;;;;;;4987477;28;20062;-84
2022/11/27 10:24:22;;;;;;;9.43;3.78;;;;;;;;;;4987572;28;20053;-84
2022/11/27 10:26:51;;;;;;;6.80;3.78;;;;;;;;;;5031343;28;20059;-83
2022/11/27 10:29:18;;;;;;;9.13;3.80;;;;;;;;;;5052453;28;20049;-83
2022/11/27 10:31:44;;;;;;;7.10;3.63;;;;;;;;;;5048391;28;20438;-83
2022/11/27 10:34:29;;;;;;;7.38;3.58;;;;;;;;;;5056010;28;20045;-86
2022/11/27 10:36:59;;;;;;;8.17;3.57;;;;;;;;;;5043398;28;20555;-84
2022/11/27 10:39:39;;;;;;;7.82;3.30;;;;;;;;;;5051176;28;20302;-83
2022/11/27 10:42:09;;;;;;;5.70;2.60;;;;;;;;;;5049050;28;20349;-85
2022/11/27 10:44:40;;;;;;;5.53;2.95;;;;;;;;;;5049720;28;20063;-85
2022/11/27 10:47:09;;;;;;;5.05;2.70;;;;;;;;;;5048994;28;20052;-83
2022/11/27 10:49:37;;;;;;;7.50;2.42;;;;;;;;;;5051645;28;20060;-86
2022/11/27 10:52:04;;;;;;;7.32;2.10;;;;;;;;;;5061614;28;20045;-85
2022/11/27 10:54:38;;;;;;;7.25;2.50;;;;;;;;;;5059916;28;20116;-84
2022/11/27 10:57:25;;;;;;;5.73;2.67;;;;;;;;;;5059689;28;20249;-85
2022/11/27 11:00:04;;;;;;;6.63;2.40;;;;;;;;;;5055439;28;20048;-85
2022/11/27 11:02:32;;;;;;;5.45;2.22;;;;;;;;;;5048509;28;20063;-83
2022/11/27 11:05:09;;;;;;;7.85;2.50;;;;;;;;;;5044355;28;20049;-81
2022/11/27 11:08:13;;;;;;;5.75;2.20;;;;;;;;;;5049438;28;20098;-84
2022/11/27 11:10:44;;;;;;;5.32;2.17;;;;;;;;;;5048038;28;20055;-83
2022/11/27 11:13:10;;;;;;;8.02;2.88;;;;;;;;;;5047155;28;20045;-83
2022/11/27 11:15:46;;;;;;;7.88;2.75;;;;;;;;;;5046478;28;20049;-82
2022/11/27 11:18:18;;;;;;;5.53;2.45;;;;;;;;;;5047374;28;20134;-82
2022/11/27 11:20:50;;;;;;;11.40;3.05;;;;;;;;;;5047755;28;20044;-84
2022/11/27 11:23:20;;;;;;;7.07;2.50;;;;;;;;;;5044980;28;20049;-84
2022/11/27 11:25:48;;;;;;;6.20;2.20;;;;;;;;;;5044335;28;20053;-82
2022/11/27 11:28:19;;;;;;;6.78;2.35;;;;;;;;;;5049766;28;20063;-84
2022/11/27 11:31:00;;;;;;;5.95;2.30;;;;;;;;;;5049637;28;20064;-82
2022/11/27 11:33:27;;;;;;;4.30;2.05;;;;;;;;;;5047733;28;20045;-84
2022/11/27 11:35:55;;;;;;;8.30;1.98;;;;;;;;;;5047965;28;20436;-83
2022/11/27 11:38:27;;;;;;;6.32;2.53;;;;;;;;;;5047064;28;20053;-83
2022/11/27 11:40:56;;;;;;;6.65;2.40;;;;;;;;;;5047519;28;20057;-83
2022/11/27 11:43:27;;;;;;;6.47;2.10;;;;;;;;;;5047810;28;20045;-82
2022/11/27 11:46:01;;;;;;;7.35;2.88;;;;;;;;;;5048275;28;20724;-83
2022/11/27 11:48:28;;;;;;;5.30;2.28;;;;;;;;;;5044784;28;20563;-82
2022/11/27 11:50:54;;;;;;;6.72;2.40;;;;;;;;;;5047775;28;20116;-82
2022/11/27 11:53:41;;;;;;;9.85;2.67;;;;;;;;;;5047256;28;20131;-83
2022/11/27 11:56:26;;;;;;;6.97;2.63;;;;;;;;;;5047854;28;20048;-83
2022/11/27 11:58:57;;;;;;;6.87;2.63;;;;;;;;;;5047139;28;20052;-82
2022/11/27 12:01:29;;;;;;;7.80;2.67;;;;;;;;;;5044939;28;20049;-81
2022/11/27 12:03:56;;;;;;;6.78;2.60;;;;;;;;;;5046708;28;20045;-80
2022/11/27 12:06:27;;;;;;;7.32;2.63;;;;;;;;;;5038793;28;21940;-81
2022/11/27 12:09:12;;;;;;;7.18;2.67;;;;;;;;;;5048760;28;20049;-82
2022/11/27 12:11:46;;;;;;;7.60;2.92;;;;;;;;;;5043748;28;20056;-82
2022/11/27 12:14:28;;;;;;;9.93;3.05;;;;;;;;;;5046127;28;20053;-81
2022/11/27 12:17:02;;;;;;;5.93;2.97;;;;;;;;;;5044504;28;20060;-83
2022/11/27 12:19:47;;;;;;;7.88;3.05;;;;;;;;;;5046516;28;20049;-81
2022/11/27 12:22:23;;;;;;;6.78;2.85;;;;;;;;;;5046890;28;20056;-80
2022/11/27 12:24:49;;;;;;;;;;;;;;;;;;5046996;28;20060;-81
2022/11/27 12:27:15;;;;;;;8.73;3.47;;;;;;;;;;5051361;28;19935;-81
2022/11/27 12:29:47;;;;;;;7.68;3.20;;;;;;;;;;5048602;28;20053;-81
2022/11/27 12:32:29;;;;;;;7.95;3.45;;;;;;;;;;5056007;28;20108;-80
2022/11/27 12:34:55;;;;;;;7.80;3.38;;;;;;;;;;5051455;28;20055;-81
2022/11/27 12:37:21;;;;;;;9.05;4.35;;;;;;;;;;5051468;28;20461;-82
2022/11/27 12:39:54;;;;;;;7.70;3.47;;;;;;;;;;5052820;28;20045;-83
2022/11/27 12:42:23;;;;;;;10.45;3.88;;;;;;;;;;5049160;28;20045;-82
2022/11/27 12:44:55;;;;;;;8.13;3.70;;;;;;;;;;5053777;28;20065;-83
2022/11/27 12:47:25;;;;;;;9.60;3.83;;;;;;;;;;5055036;28;20120;-81
2022/11/27 12:49:56;;;;;;;7.68;3.70;;;;;;;;;;5049305;28;20060;-82
2022/11/27 12:52:24;;;;;;;8.95;3.88;;;;;;;;;;5055724;28;20124;-82
2022/11/27 12:55:11;;;;;;;8.02;4.30;;;;;;;;;;5046713;28;20584;-82
2022/11/27 12:57:49;;;;;;;13.05;4.47;;;;;;;;;;5052173;28;20063;-81
2022/11/27 13:00:20;;;;;;;14.77;4.40;;;;;;;;;;5046882;28;20075;-82
2022/11/27 13:02:49;;;;;;;9.10;4.38;;;;;;;;;;5045756;28;20161;-80
2022/11/27 13:05:22;;;;;;;10.90;4.38;;;;;;;;;;5046681;28;20053;-80
2022/11/27 13:07:54;;;;;;;9.70;4.47;;;;;;;;;;5043842;28;20053;-80
2022/11/27 13:10:33;;;;;;;12.38;4.60;;;;;;;;;;5048304;28;20083;-81
2022/11/27 13:13:18;;;;;;;10.15;4.65;;;;;;;;;;5049090;28;20044;-80
2022/11/27 13:15:53;;;;;;;9.40;4.78;;;;;;;;;;5049643;28;20053;-81
2022/11/27 13:18:20;;;;;;;10.68;4.43;;;;;;;;;;5050814;28;20607;-78
2022/11/27 13:20:47;;;;;;;10.05;4.60;;;;;;;;;;5041223;28;20076;-81
2022/11/27 13:23:18;;;;;;;10.25;4.82;;;;;;;;;;5050334;28;20525;-82
2022/11/27 13:25:47;;;;;;;14.95;5.07;;;;;;;;;;5040247;28;20131;-80
2022/11/27 13:28:49;;;;;;;10.60;5.13;;;;;;;;;;5049086;28;20048;-82
2022/11/27 13:31:20;;;;;;;13.30;4.93;;;;;;;;;;4987296;28;20763;-81
2022/11/27 13:33:47;;;;;;;10.15;3.90;;;;;;;;;;5028194;28;20131;-83
2022/11/27 13:36:19;;;;;;;12.57;4.03;;;;;;;;;;5050373;28;20072;-81
2022/11/27 13:38:50;;;;;;;12.23;3.95;;;;;;;;;;5049846;28;20052;-81
2022/11/27 13:41:21;;;;;;;10.27;4.10;;;;;;;;;;5051418;28;20049;-80
2022/11/27 13:43:51;;;;;;;11.10;3.78;;;;;;;;;;5051394;28;20128;-80
2022/11/27 13:46:23;;;;;;;8.23;3.95;;;;;;;;;;5047803;28;20052;-81
2022/11/27 13:48:52;;;;;;;8.32;3.88;;;;;;;;;;5052757;28;20157;-81
2022/11/27 13:51:27;;;;;;;12.68;4.40;;;;;;;;;;5053165;28;20060;-80
2022/11/27 13:54:05;;;;;;;9.63;3.70;;;;;;;;;;5054162;28;20045;-82
2022/11/27 13:56:31;;;;;;;11.40;3.88;;;;;;;;;;5049683;28;20064;-79
2022/11/27 13:58:58;;;;;;;6.80;3.58;;;;;;;;;;5046850;28;20059;-82
2022/11/27 14:01:24;;;;;;;9.98;3.38;;;;;;;;;;5050875;28;20049;-82
2022/11/27 14:03:51;;;;;;;8.75;3.35;;;;;;;;;;5050332;28;20060;-79
2022/11/27 14:06:23;;;;;;;12.32;4.28;;;;;;;;;;5049026;28;20064;-81
2022/11/27 14:08:52;;;;;;;8.75;3.55;;;;;;;;;;5049166;28;20056;-82
2022/11/27 14:11:28;;;;;;;7.80;3.55;;;;;;;;;;5049345;28;20064;-81
2022/11/27 14:13:54;;;;;;;;;;;;;;;;;;5050362;28;20132;-81
2022/11/27 14:16:47;;;;;;;11.23;3.55;;;;;;;;;;5044231;28;19997;-82
2022/11/27 14:19:25;;;;;;;9.70;3.55;;;;;;;;;;5047427;28;20049;-82
2022/11/27 14:21:59;;;;;;;11.80;3.17;;;;;;;;;;5048484;28;20045;-80
2022/11/27 14:24:25;;;;;;;8.00;3.40;;;;;;;;;;5049319;28;20302;-81
2022/11/27 14:26:52;;;;;;;7.03;3.50;;;;;;;;;;5050338;28;20056;-81
2022/11/27 14:29:19;;;;;;;10.80;3.50;;;;;;;;;;5049100;28;20045;-81
2022/11/27 14:31:54;;;;;;;11.20;3.40;;;;;;;;;;5049695;28;20524;-80
2022/11/27 14:34:31;;;;;;;11.52;3.45;;;;;;;;;;5045503;28;20079;-83
2022/11/27 14:36:58;;;;;;;11.73;4.20;;;;;;;;;;5049524;28;20049;-82
2022/11/27 14:39:28;;;;;;;9.68;3.75;;;;;;;;;;5055470;28;20049;-83
2022/11/27 14:42:17;;;;;;;10.23;4.10;;;;;;;;;;5070870;28;20053;-83